sensor_id;sensor_type;location;lat;lon;timestamp;temperature;humidity
6244;DHT22;3155;49.940;8.450;2022-10-16T00:01:28;14.30;99.90
6244;DHT22;3155;49.940;8.450;2022-10-16T00:03:59;14.30;99.90
6244;DHT22;3155;49.940;8.450;2022-10-16T00:06:27;14.20;99.90
6244;DHT22;3155;49.940;8.450;2022-10-16T00:08:54;14.30;99.90
6244;DHT22;3155;49.940;8.450;2022-10-16T00:11:27;14.30;99.90
6244;DHT22;3155;49.940;8.450;2022-10-16T00:14:01;14.20;99.90
6244;DHT22;3155;49.940;8.450;2022-10-16T00:16:28;14.30;99.90
6244;DHT22;3155;49.940;8.450;2022-10-16T00:18:57;14.30;99.90
6244;DHT22;3155;49.940;8.450;2022-10-16T00:21:26;14.30;99.90
6244;DHT22;3155;49.940;8.450;2022-10-16T00:24:03;14.30;99.90
6244;DHT22;3155;49.940;8.450;2022-10-16T00:26:32;14.30;99.90
6244;DHT22;3155;49.940;8.450;2022-10-16T00:28:59;14.20;99.90
6244;DHT22;3155;49.940;8.450;2022-10-16T00:31:26;14.20;99.90
6244;DHT22;3155;49.940;8.450;2022-10-16T00:33:53;14.20;99.90
6244;DHT22;3155;49.940;8.450;2022-10-16T00:36:24;14.20;99.90
6244;DHT22;3155;49.940;8.450;2022-10-16T00:38:52;14.20;99.90
6244;DHT22;3155;49.940;8.450;2022-10-16T00:41:23;14.20;99.90
6244;DHT22;3155;49.940;8.450;2022-10-16T00:43:56;14.30;99.90
6244;DHT22;3155;49.940;8.450;2022-10-16T00:51:35;14.30;99.90
6244;DHT22;3155;49.940;8.450;2022-10-16T00:54:04;14.40;99.90
6244;DHT22;3155;49.940;8.450;2022-10-16T00:56:33;14.40;99.90
6244;DHT22;3155;49.940;8.450;2022-10-16T00:59:06;14.40;99.90
6244;DHT22;3155;49.940;8.450;2022-10-16T01:01:34;14.50;99.90
6244;DHT22;3155;49.940;8.450;2022-10-16T01:04:01;14.50;99.90
6244;DHT22;3155;49.940;8.450;2022-10-16T01:09:51;14.50;99.90
6244;DHT22;3155;49.940;8.450;2022-10-16T01:12:23;14.50;99.90
6244;DHT22;3155;49.940;8.450;2022-10-16T01:17:51;14.60;99.90
6244;DHT22;3155;49.940;8.450;2022-10-16T01:20:33;14.60;99.90
6244;DHT22;3155;49.940;8.450;2022-10-16T01:23:05;14.60;99.90
6244;DHT22;3155;49.940;8.450;2022-10-16T01:26:14;14.60;99.90
6244;DHT22;3155;49.940;8.450;2022-10-16T01:29:15;14.60;99.90
6244;DHT22;3155;49.940;8.450;2022-10-16T01:31:48;14.60;99.90
6244;DHT22;3155;49.940;8.450;2022-10-16T01:34:19;14.60;99.90
6244;DHT22;3155;49.940;8.450;2022-10-16T01:36:56;14.50;99.90
6244;DHT22;3155;49.940;8.450;2022-10-16T01:39:34;14.50;99.90
6244;DHT22;3155;49.940;8.450;2022-10-16T01:42:09;14.50;99.90
6244;DHT22;3155;49.940;8.450;2022-10-16T01:44:38;14.40;99.90
6244;DHT22;3155;49.940;8.450;2022-10-16T01:47:08;14.50;99.90
6244;DHT22;3155;49.940;8.450;2022-10-16T01:49:38;14.40;99.90
6244;DHT22;3155;49.940;8.450;2022-10-16T01:52:15;14.40;99.90
6244;DHT22;3155;49.940;8.450;2022-10-16T01:54:46;14.40;99.90
6244;DHT22;3155;49.940;8.450;2022-10-16T01:57:17;14.40;98.20
6244;DHT22;3155;49.940;8.450;2022-10-16T01:59:50;14.40;82.10
6244;DHT22;3155;49.940;8.450;2022-10-16T02:02:20;14.40;61.10
6244;DHT22;3155;49.940;8.450;2022-10-16T02:04:55;14.40;28.60
6244;DHT22;3155;49.940;8.450;2022-10-16T02:07:26;14.40;12.50
6244;DHT22;3155;49.940;8.450;2022-10-16T02:09:54;14.40;1.00
6244;DHT22;3155;49.940;8.450;2022-10-16T02:12:25;14.40;1.00
6244;DHT22;3155;49.940;8.450;2022-10-16T02:14:53;14.40;1.00
6244;DHT22;3155;49.940;8.450;2022-10-16T02:17:20;14.40;1.00
6244;DHT22;3155;49.940;8.450;2022-10-16T02:19:53;14.40;1.00
6244;DHT22;3155;49.940;8.450;2022-10-16T02:22:26;14.50;1.00
6244;DHT22;3155;49.940;8.450;2022-10-16T02:24:59;14.40;1.00
6244;DHT22;3155;49.940;8.450;2022-10-16T02:27:47;14.40;1.00
6244;DHT22;3155;49.940;8.450;2022-10-16T02:32:48;14.50;1.00
6244;DHT22;3155;49.940;8.450;2022-10-16T02:35:17;14.40;1.00
6244;DHT22;3155;49.940;8.450;2022-10-16T02:37:46;14.40;1.00
6244;DHT22;3155;49.940;8.450;2022-10-16T02:40:17;14.40;1.00
6244;DHT22;3155;49.940;8.450;2022-10-16T02:42:51;14.40;1.00
6244;DHT22;3155;49.940;8.450;2022-10-16T02:45:19;14.30;1.00
6244;DHT22;3155;49.940;8.450;2022-10-16T02:47:54;14.30;1.00
6244;DHT22;3155;49.940;8.450;2022-10-16T02:50:21;14.30;1.00
6244;DHT22;3155;49.940;8.450;2022-10-16T02:52:51;14.40;1.00
6244;DHT22;3155;49.940;8.450;2022-10-16T02:55:18;14.30;1.00
6244;DHT22;3155;49.940;8.450;2022-10-16T02:57:45;14.40;1.00
6244;DHT22;3155;49.940;8.450;2022-10-16T03:00:16;14.40;1.00
6244;DHT22;3155;49.940;8.450;2022-10-16T03:02:43;14.40;1.00
6244;DHT22;3155;49.940;8.450;2022-10-16T03:05:10;14.40;1.00
6244;DHT22;3155;49.940;8.450;2022-10-16T03:07:37;14.40;1.00
6244;DHT22;3155;49.940;8.450;2022-10-16T03:10:04;14.30;1.00
6244;DHT22;3155;49.940;8.450;2022-10-16T03:12:31;14.30;1.00
6244;DHT22;3155;49.940;8.450;2022-10-16T03:14:58;14.30;1.00
6244;DHT22;3155;49.940;8.450;2022-10-16T03:17:25;14.30;1.00
6244;DHT22;3155;49.940;8.450;2022-10-16T03:19:52;14.30;1.00
6244;DHT22;3155;49.940;8.450;2022-10-16T03:22:19;14.40;1.00
6244;DHT22;3155;49.940;8.450;2022-10-16T03:24:45;14.40;1.00
6244;DHT22;3155;49.940;8.450;2022-10-16T03:27:12;14.40;1.00
6244;DHT22;3155;49.940;8.450;2022-10-16T03:29:39;14.40;1.00
6244;DHT22;3155;49.940;8.450;2022-10-16T03:32:12;14.50;1.00
6244;DHT22;3155;49.940;8.450;2022-10-16T03:34:38;14.40;1.00
6244;DHT22;3155;49.940;8.450;2022-10-16T03:37:05;14.40;1.00
6244;DHT22;3155;49.940;8.450;2022-10-16T03:39:32;14.40;1.00
6244;DHT22;3155;49.940;8.450;2022-10-16T03:41:58;14.40;1.00
6244;DHT22;3155;49.940;8.450;2022-10-16T03:44:25;14.30;1.00
6244;DHT22;3155;49.940;8.450;2022-10-16T03:46:52;14.40;1.00
6244;DHT22;3155;49.940;8.450;2022-10-16T03:49:18;14.30;1.00
6244;DHT22;3155;49.940;8.450;2022-10-16T03:51:45;14.40;1.00
6244;DHT22;3155;49.940;8.450;2022-10-16T03:54:12;14.40;1.00
6244;DHT22;3155;49.940;8.450;2022-10-16T03:56:55;14.40;1.00
6244;DHT22;3155;49.940;8.450;2022-10-16T03:59:22;14.40;1.00
6244;DHT22;3155;49.940;8.450;2022-10-16T04:01:49;14.40;1.00
6244;DHT22;3155;49.940;8.450;2022-10-16T04:04:18;14.30;1.00
6244;DHT22;3155;49.940;8.450;2022-10-16T04:06:45;14.30;1.00
6244;DHT22;3155;49.940;8.450;2022-10-16T04:09:12;14.30;1.00
6244;DHT22;3155;49.940;8.450;2022-10-16T04:11:39;14.30;1.00
6244;DHT22;3155;49.940;8.450;2022-10-16T04:14:05;14.30;1.00
6244;DHT22;3155;49.940;8.450;2022-10-16T04:16:35;14.40;1.00
6244;DHT22;3155;49.940;8.450;2022-10-16T04:19:02;14.40;1.00
6244;DHT22;3155;49.940;8.450;2022-10-16T04:21:32;14.40;1.00
6244;DHT22;3155;49.940;8.450;2022-10-16T04:23:59;14.40;1.00
6244;DHT22;3155;49.940;8.450;2022-10-16T04:26:25;14.50;1.00
6244;DHT22;3155;49.940;8.450;2022-10-16T04:28:52;14.50;1.00
6244;DHT22;3155;49.940;8.450;2022-10-16T04:31:19;14.50;1.00
6244;DHT22;3155;49.940;8.450;2022-10-16T04:33:48;14.50;1.00
6244;DHT22;3155;49.940;8.450;2022-10-16T04:36:18;14.40;1.00
6244;DHT22;3155;49.940;8.450;2022-10-16T04:38:44;14.40;1.00
6244;DHT22;3155;49.940;8.450;2022-10-16T04:41:13;14.40;1.00
6244;DHT22;3155;49.940;8.450;2022-10-16T04:43:43;14.30;1.00
6244;DHT22;3155;49.940;8.450;2022-10-16T04:46:13;14.30;1.00
6244;DHT22;3155;49.940;8.450;2022-10-16T04:48:39;14.30;1.00
6244;DHT22;3155;49.940;8.450;2022-10-16T04:51:06;14.20;1.00
6244;DHT22;3155;49.940;8.450;2022-10-16T04:53:33;14.20;1.00
6244;DHT22;3155;49.940;8.450;2022-10-16T04:56:06;14.20;1.00
6244;DHT22;3155;49.940;8.450;2022-10-16T04:58:36;14.20;1.00
6244;DHT22;3155;49.940;8.450;2022-10-16T05:01:03;14.20;1.00
6244;DHT22;3155;49.940;8.450;2022-10-16T05:03:29;14.20;1.00
6244;DHT22;3155;49.940;8.450;2022-10-16T05:05:58;14.20;1.00
6244;DHT22;3155;49.940;8.450;2022-10-16T05:08:25;14.30;1.00
6244;DHT22;3155;49.940;8.450;2022-10-16T05:10:51;14.30;1.00
6244;DHT22;3155;49.940;8.450;2022-10-16T05:13:18;14.30;1.00
6244;DHT22;3155;49.940;8.450;2022-10-16T05:15:47;14.20;1.00
6244;DHT22;3155;49.940;8.450;2022-10-16T05:18:15;14.20;1.00
6244;DHT22;3155;49.940;8.450;2022-10-16T05:20:42;14.20;1.00
6244;DHT22;3155;49.940;8.450;2022-10-16T05:23:09;14.20;1.00
6244;DHT22;3155;49.940;8.450;2022-10-16T05:25:57;14.10;1.00
6244;DHT22;3155;49.940;8.450;2022-10-16T05:28:29;14.10;1.00
6244;DHT22;3155;49.940;8.450;2022-10-16T05:30:57;14.00;1.00
6244;DHT22;3155;49.940;8.450;2022-10-16T05:33:24;14.00;1.00
6244;DHT22;3155;49.940;8.450;2022-10-16T05:35:51;13.90;1.00
6244;DHT22;3155;49.940;8.450;2022-10-16T05:38:25;13.80;1.00
6244;DHT22;3155;49.940;8.450;2022-10-16T05:40:55;13.80;1.00
6244;DHT22;3155;49.940;8.450;2022-10-16T05:43:22;13.80;1.00
6244;DHT22;3155;49.940;8.450;2022-10-16T05:45:57;13.80;1.00
6244;DHT22;3155;49.940;8.450;2022-10-16T05:48:24;13.80;1.00
6244;DHT22;3155;49.940;8.450;2022-10-16T05:51:03;13.80;1.00
6244;DHT22;3155;49.940;8.450;2022-10-16T05:53:31;13.80;1.00
6244;DHT22;3155;49.940;8.450;2022-10-16T05:55:59;13.80;1.00
6244;DHT22;3155;49.940;8.450;2022-10-16T05:58:30;13.80;1.00
6244;DHT22;3155;49.940;8.450;2022-10-16T06:01:11;13.90;1.00
6244;DHT22;3155;49.940;8.450;2022-10-16T06:03:38;13.90;1.00
6244;DHT22;3155;49.940;8.450;2022-10-16T06:06:15;14.00;1.00
6244;DHT22;3155;49.940;8.450;2022-10-16T06:08:47;14.00;1.00
6244;DHT22;3155;49.940;8.450;2022-10-16T06:11:24;14.00;1.00
6244;DHT22;3155;49.940;8.450;2022-10-16T06:13:55;14.10;1.00
6244;DHT22;3155;49.940;8.450;2022-10-16T06:16:24;14.20;1.00
6244;DHT22;3155;49.940;8.450;2022-10-16T06:18:52;14.20;1.00
6244;DHT22;3155;49.940;8.450;2022-10-16T06:21:24;14.20;1.00
6244;DHT22;3155;49.940;8.450;2022-10-16T06:23:52;14.30;1.00
6244;DHT22;3155;49.940;8.450;2022-10-16T06:26:24;14.40;1.00
6244;DHT22;3155;49.940;8.450;2022-10-16T06:28:55;14.40;1.00
6244;DHT22;3155;49.940;8.450;2022-10-16T06:31:29;14.50;1.00
6244;DHT22;3155;49.940;8.450;2022-10-16T06:33:58;14.50;1.00
6244;DHT22;3155;49.940;8.450;2022-10-16T06:36:25;14.50;1.00
6244;DHT22;3155;49.940;8.450;2022-10-16T06:38:55;14.50;1.00
6244;DHT22;3155;49.940;8.450;2022-10-16T06:41:22;14.50;1.00
6244;DHT22;3155;49.940;8.450;2022-10-16T06:43:49;14.50;1.00
6244;DHT22;3155;49.940;8.450;2022-10-16T06:46:17;14.50;1.00
6244;DHT22;3155;49.940;8.450;2022-10-16T06:48:44;14.50;1.00
6244;DHT22;3155;49.940;8.450;2022-10-16T06:51:22;14.60;1.00
6244;DHT22;3155;49.940;8.450;2022-10-16T06:53:54;14.60;1.00
6244;DHT22;3155;49.940;8.450;2022-10-16T06:56:31;14.70;1.00
6244;DHT22;3155;49.940;8.450;2022-10-16T06:58:58;14.80;1.00
6244;DHT22;3155;49.940;8.450;2022-10-16T07:01:26;14.80;1.00
6244;DHT22;3155;49.940;8.450;2022-10-16T07:03:53;14.90;1.00
6244;DHT22;3155;49.940;8.450;2022-10-16T07:06:24;14.90;1.00
6244;DHT22;3155;49.940;8.450;2022-10-16T07:08:51;14.90;1.00
6244;DHT22;3155;49.940;8.450;2022-10-16T07:11:22;14.90;1.00
6244;DHT22;3155;49.940;8.450;2022-10-16T07:13:50;15.00;1.00
6244;DHT22;3155;49.940;8.450;2022-10-16T07:16:25;15.00;1.00
6244;DHT22;3155;49.940;8.450;2022-10-16T07:18:55;14.90;1.00
6244;DHT22;3155;49.940;8.450;2022-10-16T07:21:26;14.90;1.00
6244;DHT22;3155;49.940;8.450;2022-10-16T07:23:57;14.80;1.00
6244;DHT22;3155;49.940;8.450;2022-10-16T07:26:26;14.80;1.00
6244;DHT22;3155;49.940;8.450;2022-10-16T07:28:53;14.80;1.00
6244;DHT22;3155;49.940;8.450;2022-10-16T07:31:24;14.80;1.00
6244;DHT22;3155;49.940;8.450;2022-10-16T07:33:51;14.80;1.00
6244;DHT22;3155;49.940;8.450;2022-10-16T07:36:19;14.80;1.00
6244;DHT22;3155;49.940;8.450;2022-10-16T07:38:47;14.80;1.00
6244;DHT22;3155;49.940;8.450;2022-10-16T07:41:17;14.80;1.00
6244;DHT22;3155;49.940;8.450;2022-10-16T07:43:57;14.80;1.00
6244;DHT22;3155;49.940;8.450;2022-10-16T07:46:27;14.80;1.00
6244;DHT22;3155;49.940;8.450;2022-10-16T07:48:57;14.80;1.00
6244;DHT22;3155;49.940;8.450;2022-10-16T07:51:26;14.80;1.00
6244;DHT22;3155;49.940;8.450;2022-10-16T07:53:53;14.90;1.00
6244;DHT22;3155;49.940;8.450;2022-10-16T07:56:21;14.90;1.00
6244;DHT22;3155;49.940;8.450;2022-10-16T07:58:48;15.00;1.00
6244;DHT22;3155;49.940;8.450;2022-10-16T08:01:19;15.00;1.00
6244;DHT22;3155;49.940;8.450;2022-10-16T08:03:50;15.00;1.00
6244;DHT22;3155;49.940;8.450;2022-10-16T08:06:21;15.10;1.00
6244;DHT22;3155;49.940;8.450;2022-10-16T08:08:54;15.10;1.00
6244;DHT22;3155;49.940;8.450;2022-10-16T08:11:21;15.20;1.00
6244;DHT22;3155;49.940;8.450;2022-10-16T08:13:47;15.30;1.00
6244;DHT22;3155;49.940;8.450;2022-10-16T08:16:14;15.30;1.00
6244;DHT22;3155;49.940;8.450;2022-10-16T08:18:41;15.40;1.00
6244;DHT22;3155;49.940;8.450;2022-10-16T08:21:14;15.30;1.00
6244;DHT22;3155;49.940;8.450;2022-10-16T08:23:47;15.30;1.00
6244;DHT22;3155;49.940;8.450;2022-10-16T08:26:22;15.20;1.00
6244;DHT22;3155;49.940;8.450;2022-10-16T08:28:55;15.20;1.00
6244;DHT22;3155;49.940;8.450;2022-10-16T08:31:23;15.10;1.00
6244;DHT22;3155;49.940;8.450;2022-10-16T08:33:50;15.10;1.00
6244;DHT22;3155;49.940;8.450;2022-10-16T08:36:17;15.20;1.00
6244;DHT22;3155;49.940;8.450;2022-10-16T08:38:47;15.20;1.00
6244;DHT22;3155;49.940;8.450;2022-10-16T08:47:23;15.40;1.00
6244;DHT22;3155;49.940;8.450;2022-10-16T08:50:08;15.50;1.00
6244;DHT22;3155;49.940;8.450;2022-10-16T08:52:40;15.60;1.00
6244;DHT22;3155;49.940;8.450;2022-10-16T08:55:40;15.60;1.00
6244;DHT22;3155;49.940;8.450;2022-10-16T09:01:15;15.70;1.00
6244;DHT22;3155;49.940;8.450;2022-10-16T09:21:18;16.30;1.00
6244;DHT22;3155;49.940;8.450;2022-10-16T09:23:48;16.30;1.00
6244;DHT22;3155;49.940;8.450;2022-10-16T09:26:16;16.30;1.00
6244;DHT22;3155;49.940;8.450;2022-10-16T09:28:43;16.30;1.00
6244;DHT22;3155;49.940;8.450;2022-10-16T09:31:30;16.50;1.00
6244;DHT22;3155;49.940;8.450;2022-10-16T09:34:00;16.90;1.00
6244;DHT22;3155;49.940;8.450;2022-10-16T09:36:40;17.30;1.00
6244;DHT22;3155;49.940;8.450;2022-10-16T09:39:10;17.40;1.00
6244;DHT22;3155;49.940;8.450;2022-10-16T09:41:43;17.40;1.00
6244;DHT22;3155;49.940;8.450;2022-10-16T09:44:28;17.20;99.90
6244;DHT22;3155;49.940;8.450;2022-10-16T09:47:13;17.20;98.60
6244;DHT22;3155;49.940;8.450;2022-10-16T09:52:26;17.70;99.90
6244;DHT22;3155;49.940;8.450;2022-10-16T09:54:55;18.00;1.00
6244;DHT22;3155;49.940;8.450;2022-10-16T09:57:23;18.20;1.00
6244;DHT22;3155;49.940;8.450;2022-10-16T09:59:56;18.50;99.90
6244;DHT22;3155;49.940;8.450;2022-10-16T10:02:36;18.70;99.90
6244;DHT22;3155;49.940;8.450;2022-10-16T10:05:29;18.70;5.80
6244;DHT22;3155;49.940;8.450;2022-10-16T10:07:58;18.70;1.00
6244;DHT22;3155;49.940;8.450;2022-10-16T10:10:30;18.60;99.90
6244;DHT22;3155;49.940;8.450;2022-10-16T10:12:58;18.40;1.00
6244;DHT22;3155;49.940;8.450;2022-10-16T10:15:28;17.90;99.90
6244;DHT22;3155;49.940;8.450;2022-10-16T10:17:59;17.70;1.00
6244;DHT22;3155;49.940;8.450;2022-10-16T10:20:30;17.70;43.90
6244;DHT22;3155;49.940;8.450;2022-10-16T10:22:59;18.00;1.00
6244;DHT22;3155;49.940;8.450;2022-10-16T10:25:34;18.60;1.00
6244;DHT22;3155;49.940;8.450;2022-10-16T10:33:27;20.30;30.80
6244;DHT22;3155;49.940;8.450;2022-10-16T10:36:07;20.70;1.00
6244;DHT22;3155;49.940;8.450;2022-10-16T10:46:58;21.80;1.00
6244;DHT22;3155;49.940;8.450;2022-10-16T10:53:14;22.10;99.90
6244;DHT22;3155;49.940;8.450;2022-10-16T10:55:51;22.70;99.90
6244;DHT22;3155;49.940;8.450;2022-10-16T11:01:47;24.10;99.90
6244;DHT22;3155;49.940;8.450;2022-10-16T11:07:05;23.70;99.90
6244;DHT22;3155;49.940;8.450;2022-10-16T11:09:48;23.20;99.90
6244;DHT22;3155;49.940;8.450;2022-10-16T11:15:15;22.90;99.90
6244;DHT22;3155;49.940;8.450;2022-10-16T11:20:24;22.90;99.90
6244;DHT22;3155;49.940;8.450;2022-10-16T11:25:53;23.00;99.90
6244;DHT22;3155;49.940;8.450;2022-10-16T11:28:21;23.00;99.90
6244;DHT22;3155;49.940;8.450;2022-10-16T11:31:13;22.70;99.90
6244;DHT22;3155;49.940;8.450;2022-10-16T11:34:09;22.40;99.90
6244;DHT22;3155;49.940;8.450;2022-10-16T11:36:48;22.10;99.90
6244;DHT22;3155;49.940;8.450;2022-10-16T11:44:44;22.80;99.90
6244;DHT22;3155;49.940;8.450;2022-10-16T11:50:40;24.60;99.90
6244;DHT22;3155;49.940;8.450;2022-10-16T11:56:19;25.40;99.90
6244;DHT22;3155;49.940;8.450;2022-10-16T11:59:08;24.80;99.90
6244;DHT22;3155;49.940;8.450;2022-10-16T12:01:47;24.40;99.90
6244;DHT22;3155;49.940;8.450;2022-10-16T12:07:09;24.80;99.90
6244;DHT22;3155;49.940;8.450;2022-10-16T12:09:40;24.80;99.90
6244;DHT22;3155;49.940;8.450;2022-10-16T12:12:37;24.50;99.90
6244;DHT22;3155;49.940;8.450;2022-10-16T12:15:27;24.30;99.90
6244;DHT22;3155;49.940;8.450;2022-10-16T12:18:22;24.70;99.90
6244;DHT22;3155;49.940;8.450;2022-10-16T12:21:02;24.90;99.90
6244;DHT22;3155;49.940;8.450;2022-10-16T12:23:38;24.90;99.90
6244;DHT22;3155;49.940;8.450;2022-10-16T12:26:05;25.00;99.90
6244;DHT22;3155;49.940;8.450;2022-10-16T12:28:33;24.80;99.90
6244;DHT22;3155;49.940;8.450;2022-10-16T12:31:01;24.80;99.90
6244;DHT22;3155;49.940;8.450;2022-10-16T12:33:56;24.80;99.90
6244;DHT22;3155;49.940;8.450;2022-10-16T12:36:32;24.90;99.90
6244;DHT22;3155;49.940;8.450;2022-10-16T12:39:02;25.20;99.90
6244;DHT22;3155;49.940;8.450;2022-10-16T12:41:31;25.50;99.90
6244;DHT22;3155;49.940;8.450;2022-10-16T12:43:59;25.80;99.90
6244;DHT22;3155;49.940;8.450;2022-10-16T12:46:35;26.10;99.90
6244;DHT22;3155;49.940;8.450;2022-10-16T12:51:42;25.00;99.90
6244;DHT22;3155;49.940;8.450;2022-10-16T12:54:36;24.50;99.90
6244;DHT22;3155;49.940;8.450;2022-10-16T13:23:23;21.80;99.90
6244;DHT22;3155;49.940;8.450;2022-10-16T13:26:23;22.00;99.90
6244;DHT22;3155;49.940;8.450;2022-10-16T13:28:59;22.10;99.90
6244;DHT22;3155;49.940;8.450;2022-10-16T13:31:28;22.20;99.90
6244;DHT22;3155;49.940;8.450;2022-10-16T13:33:57;22.10;99.90
6244;DHT22;3155;49.940;8.450;2022-10-16T13:36:28;22.10;99.90
6244;DHT22;3155;49.940;8.450;2022-10-16T13:39:20;22.00;99.90
6244;DHT22;3155;49.940;8.450;2022-10-16T13:44:46;21.70;99.90
6244;DHT22;3155;49.940;8.450;2022-10-16T13:47:19;21.50;99.90
6244;DHT22;3155;49.940;8.450;2022-10-16T13:49:46;21.30;99.90
6244;DHT22;3155;49.940;8.450;2022-10-16T13:52:20;21.10;99.90
6244;DHT22;3155;49.940;8.450;2022-10-16T13:54:53;20.90;99.90
6244;DHT22;3155;49.940;8.450;2022-10-16T13:57:27;20.80;99.90
6244;DHT22;3155;49.940;8.450;2022-10-16T13:59:54;20.60;99.90
6244;DHT22;3155;49.940;8.450;2022-10-16T14:02:25;20.40;99.90
6244;DHT22;3155;49.940;8.450;2022-10-16T14:04:54;20.30;99.90
6244;DHT22;3155;49.940;8.450;2022-10-16T14:07:34;20.20;99.90
6244;DHT22;3155;49.940;8.450;2022-10-16T14:10:22;20.10;99.90
6244;DHT22;3155;49.940;8.450;2022-10-16T14:12:58;19.90;99.90
6244;DHT22;3155;49.940;8.450;2022-10-16T14:15:26;19.90;99.90
6244;DHT22;3155;49.940;8.450;2022-10-16T14:17:58;20.10;99.90
6244;DHT22;3155;49.940;8.450;2022-10-16T14:20:31;20.50;99.90
6244;DHT22;3155;49.940;8.450;2022-10-16T14:23:01;21.00;99.90
6244;DHT22;3155;49.940;8.450;2022-10-16T14:25:30;21.30;99.90
6244;DHT22;3155;49.940;8.450;2022-10-16T14:28:18;21.40;99.90
6244;DHT22;3155;49.940;8.450;2022-10-16T14:30:53;21.50;99.90
6244;DHT22;3155;49.940;8.450;2022-10-16T14:38:42;21.40;99.90
6244;DHT22;3155;49.940;8.450;2022-10-16T14:41:21;21.40;99.90
6244;DHT22;3155;49.940;8.450;2022-10-16T14:43:54;21.40;99.90
6244;DHT22;3155;49.940;8.450;2022-10-16T14:46:36;21.20;99.90
6244;DHT22;3155;49.940;8.450;2022-10-16T14:49:19;21.10;99.90
6244;DHT22;3155;49.940;8.450;2022-10-16T14:51:47;21.00;99.90
6244;DHT22;3155;49.940;8.450;2022-10-16T14:54:15;21.00;99.90
6244;DHT22;3155;49.940;8.450;2022-10-16T14:56:52;21.00;99.90
6244;DHT22;3155;49.940;8.450;2022-10-16T14:59:29;20.90;99.90
6244;DHT22;3155;49.940;8.450;2022-10-16T15:01:56;20.80;99.90
6244;DHT22;3155;49.940;8.450;2022-10-16T15:04:23;20.70;99.90
6244;DHT22;3155;49.940;8.450;2022-10-16T15:06:56;20.60;99.90
6244;DHT22;3155;49.940;8.450;2022-10-16T15:09:25;20.50;99.90
6244;DHT22;3155;49.940;8.450;2022-10-16T15:11:53;20.50;99.90
6244;DHT22;3155;49.940;8.450;2022-10-16T15:14:21;20.60;99.90
6244;DHT22;3155;49.940;8.450;2022-10-16T15:16:51;20.80;99.90
6244;DHT22;3155;49.940;8.450;2022-10-16T15:19:18;21.10;99.90
6244;DHT22;3155;49.940;8.450;2022-10-16T15:21:47;21.30;99.90
6244;DHT22;3155;49.940;8.450;2022-10-16T15:24:14;21.40;99.90
6244;DHT22;3155;49.940;8.450;2022-10-16T15:26:50;21.50;99.90
6244;DHT22;3155;49.940;8.450;2022-10-16T15:29:16;21.40;99.90
6244;DHT22;3155;49.940;8.450;2022-10-16T15:31:48;21.20;99.90
6244;DHT22;3155;49.940;8.450;2022-10-16T15:34:18;20.80;99.90
6244;DHT22;3155;49.940;8.450;2022-10-16T15:36:46;20.60;99.90
6244;DHT22;3155;49.940;8.450;2022-10-16T15:39:16;20.40;99.90
6244;DHT22;3155;49.940;8.450;2022-10-16T15:41:43;20.20;99.90
6244;DHT22;3155;49.940;8.450;2022-10-16T15:44:10;20.00;99.90
6244;DHT22;3155;49.940;8.450;2022-10-16T15:46:43;19.90;99.90
6244;DHT22;3155;49.940;8.450;2022-10-16T15:49:13;19.80;99.90
6244;DHT22;3155;49.940;8.450;2022-10-16T15:51:43;19.70;99.90
6244;DHT22;3155;49.940;8.450;2022-10-16T15:54:09;19.60;99.90
6244;DHT22;3155;49.940;8.450;2022-10-16T15:56:36;19.60;99.90
6244;DHT22;3155;49.940;8.450;2022-10-16T15:59:04;19.50;99.90
6244;DHT22;3155;49.940;8.450;2022-10-16T16:01:34;19.50;99.90
6244;DHT22;3155;49.940;8.450;2022-10-16T16:04:02;19.50;99.90
6244;DHT22;3155;49.940;8.450;2022-10-16T16:06:41;19.50;99.90
6244;DHT22;3155;49.940;8.450;2022-10-16T16:09:14;19.40;1.00
6244;DHT22;3155;49.940;8.450;2022-10-16T16:11:43;19.30;1.00
6244;DHT22;3155;49.940;8.450;2022-10-16T16:14:12;19.20;1.00
6244;DHT22;3155;49.940;8.450;2022-10-16T16:16:39;19.10;1.00
6244;DHT22;3155;49.940;8.450;2022-10-16T16:19:06;19.00;1.00
6244;DHT22;3155;49.940;8.450;2022-10-16T16:21:38;18.90;1.00
6244;DHT22;3155;49.940;8.450;2022-10-16T16:24:05;18.70;1.00
6244;DHT22;3155;49.940;8.450;2022-10-16T16:26:35;18.60;99.90
6244;DHT22;3155;49.940;8.450;2022-10-16T16:29:04;18.50;99.90
6244;DHT22;3155;49.940;8.450;2022-10-16T16:31:32;18.40;99.90
6244;DHT22;3155;49.940;8.450;2022-10-16T16:33:59;18.20;1.00
6244;DHT22;3155;49.940;8.450;2022-10-16T16:36:33;18.10;99.90
6244;DHT22;3155;49.940;8.450;2022-10-16T16:39:03;18.00;1.00
6244;DHT22;3155;49.940;8.450;2022-10-16T16:41:30;17.90;99.90
6244;DHT22;3155;49.940;8.450;2022-10-16T16:44:08;17.80;99.90
6244;DHT22;3155;49.940;8.450;2022-10-16T16:46:38;17.70;1.00
6244;DHT22;3155;49.940;8.450;2022-10-16T16:49:06;17.70;25.00
6244;DHT22;3155;49.940;8.450;2022-10-16T16:51:39;17.60;99.90
6244;DHT22;3155;49.940;8.450;2022-10-16T16:54:07;17.50;1.00
6244;DHT22;3155;49.940;8.450;2022-10-16T16:56:35;17.50;99.90
6244;DHT22;3155;49.940;8.450;2022-10-16T16:59:02;17.40;1.00
6244;DHT22;3155;49.940;8.450;2022-10-16T17:01:31;17.40;1.00
6244;DHT22;3155;49.940;8.450;2022-10-16T17:04:07;17.40;99.90
6244;DHT22;3155;49.940;8.450;2022-10-16T17:06:34;17.40;99.90
6244;DHT22;3155;49.940;8.450;2022-10-16T17:09:03;17.30;99.90
6244;DHT22;3155;49.940;8.450;2022-10-16T17:11:39;17.30;1.00
6244;DHT22;3155;49.940;8.450;2022-10-16T17:14:14;17.30;1.00
6244;DHT22;3155;49.940;8.450;2022-10-16T17:16:41;17.30;99.90
6244;DHT22;3155;49.940;8.450;2022-10-16T17:19:18;17.30;99.90
6244;DHT22;3155;49.940;8.450;2022-10-16T17:21:52;17.20;99.90
6244;DHT22;3155;49.940;8.450;2022-10-16T17:24:31;17.20;99.90
6244;DHT22;3155;49.940;8.450;2022-10-16T17:26:57;17.10;99.90
6244;DHT22;3155;49.940;8.450;2022-10-16T17:29:27;17.00;99.90
6244;DHT22;3155;49.940;8.450;2022-10-16T17:31:55;16.90;99.90
6244;DHT22;3155;49.940;8.450;2022-10-16T17:34:22;16.70;99.90
6244;DHT22;3155;49.940;8.450;2022-10-16T17:36:54;16.60;99.90
6244;DHT22;3155;49.940;8.450;2022-10-16T17:39:21;16.40;1.00
6244;DHT22;3155;49.940;8.450;2022-10-16T17:41:49;16.20;1.00
6244;DHT22;3155;49.940;8.450;2022-10-16T17:44:16;16.00;1.00
6244;DHT22;3155;49.940;8.450;2022-10-16T17:46:51;15.90;1.00
6244;DHT22;3155;49.940;8.450;2022-10-16T17:49:20;15.80;99.90
6244;DHT22;3155;49.940;8.450;2022-10-16T17:51:52;15.80;99.90
6244;DHT22;3155;49.940;8.450;2022-10-16T17:54:19;15.80;99.90
6244;DHT22;3155;49.940;8.450;2022-10-16T17:56:49;15.70;99.90
6244;DHT22;3155;49.940;8.450;2022-10-16T17:59:17;15.70;99.90
6244;DHT22;3155;49.940;8.450;2022-10-16T18:01:48;15.60;99.90
6244;DHT22;3155;49.940;8.450;2022-10-16T18:04:15;15.60;99.90
6244;DHT22;3155;49.940;8.450;2022-10-16T18:06:45;15.50;99.90
6244;DHT22;3155;49.940;8.450;2022-10-16T18:09:16;15.50;99.90
6244;DHT22;3155;49.940;8.450;2022-10-16T18:11:44;15.40;1.00
6244;DHT22;3155;49.940;8.450;2022-10-16T18:14:15;15.40;1.00
6244;DHT22;3155;49.940;8.450;2022-10-16T18:16:46;15.30;1.00
6244;DHT22;3155;49.940;8.450;2022-10-16T18:19:19;15.20;1.00
6244;DHT22;3155;49.940;8.450;2022-10-16T18:21:57;15.10;1.00
6244;DHT22;3155;49.940;8.450;2022-10-16T18:24:24;15.10;1.00
6244;DHT22;3155;49.940;8.450;2022-10-16T18:26:52;15.10;1.00
6244;DHT22;3155;49.940;8.450;2022-10-16T18:29:23;15.10;1.00
6244;DHT22;3155;49.940;8.450;2022-10-16T18:31:51;15.00;1.00
6244;DHT22;3155;49.940;8.450;2022-10-16T18:34:23;15.00;1.00
6244;DHT22;3155;49.940;8.450;2022-10-16T18:36:55;14.90;1.00
6244;DHT22;3155;49.940;8.450;2022-10-16T18:39:24;14.80;1.00
6244;DHT22;3155;49.940;8.450;2022-10-16T18:41:51;14.70;1.00
6244;DHT22;3155;49.940;8.450;2022-10-16T18:44:26;14.60;1.00